createdAt,value
2023-01-12T00:02:20.418Z,98218.41
2023-01-12T00:04:48.904Z,98217.25
2023-01-12T00:07:18.288Z,98222.22
2023-01-12T00:09:46.652Z,98223.28
2023-01-12T00:12:15.199Z,98221.34
2023-01-12T00:14:43.498Z,98233.66
2023-01-12T00:17:16.774Z,98237.47
2023-01-12T00:19:46.442Z,98226.31
2023-01-12T00:22:18.567Z,98237.22
2023-01-12T00:24:49.897Z,98250.91
2023-01-12T00:27:20.699Z,98251.19
2023-01-12T00:29:49.050Z,98245.97
2023-01-12T00:32:19.287Z,98244.09
2023-01-12T00:34:48.909Z,98243.00
2023-01-12T00:37:17.450Z,98248.97
2023-01-12T00:39:56.816Z,98258.78
2023-01-12T00:42:47.403Z,98254.97
2023-01-12T00:45:25.499Z,98264.25
2023-01-12T00:47:54.709Z,98251.69
2023-01-12T00:50:24.560Z,98262.94
2023-01-12T00:52:53.023Z,98260.44
2023-01-12T00:55:21.292Z,98259.88
2023-01-12T00:57:49.815Z,98268.06
2023-01-12T01:00:18.865Z,98256.06
2023-01-12T01:02:47.698Z,98254.41
2023-01-12T01:05:16.110Z,98255.50
2023-01-12T01:07:47.467Z,98258.53
2023-01-12T01:10:16.547Z,98261.28
2023-01-12T01:12:45.581Z,98268.84
2023-01-12T01:15:14.024Z,98265.03
2023-01-12T01:17:43.009Z,98264.25
2023-01-12T01:20:12.656Z,98268.63
2023-01-12T01:22:41.234Z,98279.25
2023-01-12T01:25:11.536Z,98281.19
2023-01-12T01:27:40.328Z,98275.72
2023-01-12T01:30:10.126Z,98278.47
2023-01-12T01:32:38.692Z,98273.03
2023-01-12T01:35:07.634Z,98276.00
2023-01-12T01:37:36.153Z,98269.22
2023-01-12T01:40:04.845Z,98268.38
2023-01-12T01:42:34.809Z,98267.56
2023-01-12T01:45:04.234Z,98265.91
2023-01-12T01:47:37.236Z,98277.06
2023-01-12T01:50:08.018Z,98285.78
2023-01-12T01:52:38.566Z,98278.16
2023-01-12T01:55:10.292Z,98287.19
2023-01-12T01:57:44.680Z,98287.13
2023-01-12T02:00:14.164Z,98275.44
2023-01-12T02:02:43.707Z,98281.41
2023-01-12T02:05:13.249Z,98284.44
2023-01-12T02:07:42.141Z,98286.88
2023-01-12T02:10:11.435Z,98290.44
2023-01-12T02:12:59.209Z,98289.28
2023-01-12T02:15:45.847Z,98298.56
2023-01-12T02:18:20.986Z,98287.56
2023-01-12T02:21:10.935Z,98293.00
2023-01-12T02:24:05.592Z,98290.75
2023-01-12T02:27:18.444Z,98286.44
2023-01-12T02:30:14.254Z,98286.38
2023-01-12T02:32:50.444Z,98293.28
2023-01-12T02:35:26.223Z,98292.75
2023-01-12T02:38:00.905Z,98293.84
2023-01-12T02:40:34.266Z,98296.13
2023-01-12T02:43:05.463Z,98292.53
2023-01-12T02:45:43.490Z,98300.69
2023-01-12T02:48:17.885Z,98303.44
2023-01-12T02:50:51.569Z,98292.00
2023-01-12T02:53:24.511Z,98291.97
2023-01-12T02:55:53.863Z,98284.34
2023-01-12T02:58:24.023Z,98285.47
2023-01-12T03:00:55.591Z,98289.81
2023-01-12T03:03:26.160Z,98281.63
2023-01-12T03:05:57.024Z,98290.34
2023-01-12T03:08:28.886Z,98297.19
2023-01-12T03:11:13.225Z,98290.84
2023-01-12T03:13:45.380Z,98284.63
2023-01-12T03:16:16.845Z,98302.97
2023-01-12T03:18:50.127Z,98297.50
2023-01-12T03:21:23.285Z,98298.03
2023-01-12T03:23:56.063Z,98295.53
2023-01-12T03:26:27.924Z,98306.25
2023-01-12T03:29:00.805Z,98297.25
2023-01-12T03:31:29.346Z,98303.31
2023-01-12T03:33:59.151Z,98299.72
2023-01-12T03:36:35.327Z,98303.78
2023-01-12T03:39:10.240Z,98300.78
2023-01-12T03:41:46.951Z,98300.81
2023-01-12T03:44:20.421Z,98298.91
2023-01-12T03:46:54.774Z,98303.81
2023-01-12T03:49:30.787Z,98302.94
2023-01-12T03:52:00.286Z,98306.81
2023-01-12T03:54:29.221Z,98303.00
2023-01-12T03:56:58.063Z,98310.13
2023-01-12T03:59:26.312Z,98310.94
2023-01-12T04:01:55.479Z,98308.47
2023-01-12T04:04:24.044Z,98308.19
2023-01-12T04:06:54.048Z,98299.13
2023-01-12T04:09:23.141Z,98300.81
2023-01-12T04:12:09.543Z,98297.03
2023-01-12T04:14:37.843Z,98297.28
2023-01-12T04:17:06.418Z,98300.56
2023-01-12T04:19:34.730Z,98292.63
2023-01-12T04:22:34.198Z,98296.38
2023-01-12T04:25:02.577Z,98314.47
2023-01-12T04:27:31.151Z,98309.84
2023-01-12T04:29:59.491Z,98311.50
2023-01-12T04:32:27.994Z,98316.69
2023-01-12T04:34:56.364Z,98313.38
2023-01-12T04:37:26.517Z,98313.34
2023-01-12T04:39:55.189Z,98317.78
2023-01-12T04:42:41.020Z,98323.78
2023-01-12T04:45:10.571Z,98317.22
2023-01-12T04:47:39.246Z,98328.16
2023-01-12T04:50:08.333Z,98333.88
2023-01-12T04:52:39.104Z,98324.00
2023-01-12T04:55:07.987Z,98327.03
2023-01-12T04:57:36.727Z,98325.69
2023-01-12T05:00:05.835Z,98322.66
2023-01-12T05:02:34.472Z,98334.41
2023-01-12T05:05:02.746Z,98330.88
2023-01-12T05:07:31.340Z,98325.41
2023-01-12T05:10:18.530Z,98323.75
2023-01-12T05:12:47.143Z,98325.94
2023-01-12T05:15:15.463Z,98327.34
2023-01-12T05:17:44.021Z,98318.88
2023-01-12T05:20:13.258Z,98326.22
2023-01-12T05:22:41.951Z,98336.88
2023-01-12T05:25:11.613Z,98332.19
2023-01-12T05:27:40.255Z,98329.50
2023-01-12T05:30:09.569Z,98341.22
2023-01-12T05:32:38.483Z,98342.31
2023-01-12T05:35:07.650Z,98353.00
2023-01-12T05:37:36.493Z,98357.34
2023-01-12T05:40:05.403Z,98347.53
2023-01-12T05:42:52.542Z,98337.69
2023-01-12T05:45:20.780Z,98338.81
2023-01-12T05:47:49.404Z,98341.25
2023-01-12T05:50:17.744Z,98346.19
2023-01-12T05:52:46.264Z,98355.47
2023-01-12T05:55:14.531Z,98363.09
2023-01-12T05:57:44.749Z,98360.91
2023-01-12T06:00:13.950Z,98354.63
2023-01-12T06:02:42.805Z,98361.47
2023-01-12T06:05:11.123Z,98365.81
2023-01-12T06:07:39.729Z,98370.75
2023-01-12T06:10:09.176Z,98368.84
2023-01-12T06:12:54.946Z,98361.16
2023-01-12T06:15:24.654Z,98365.28
2023-01-12T06:17:53.349Z,98361.19
2023-01-12T06:20:21.771Z,98375.13
2023-01-12T06:22:50.313Z,98369.09
2023-01-12T06:25:18.757Z,98363.09
2023-01-12T06:27:47.348Z,98364.19
2023-01-12T06:30:15.770Z,98368.56
2023-01-12T06:32:45.744Z,98370.19
2023-01-12T06:35:19.452Z,98365.53
2023-01-12T06:37:48.621Z,98360.31
2023-01-12T06:40:17.225Z,98356.81
2023-01-12T06:42:46.142Z,98357.91
2023-01-12T06:45:14.375Z,98365.53
2023-01-12T06:47:49.452Z,98371.03
2023-01-12T06:50:18.341Z,98371.28
2023-01-12T06:52:46.954Z,98371.50
2023-01-12T06:55:15.335Z,98373.19
2023-01-12T06:57:43.932Z,98374.00
2023-01-12T07:00:13.988Z,98376.47
2023-01-12T07:02:42.715Z,98377.00
2023-01-12T07:05:12.505Z,98387.69
2023-01-12T07:07:41.332Z,98375.03
2023-01-12T07:10:11.164Z,98383.81
2023-01-12T07:12:40.067Z,98375.28
2023-01-12T07:15:09.864Z,98373.44
2023-01-12T07:17:38.699Z,98375.28
2023-01-12T07:20:08.475Z,98388.75
2023-01-12T07:22:39.452Z,98391.50
2023-01-12T07:25:08.591Z,98394.75
2023-01-12T07:27:37.238Z,98386.56
2023-01-12T07:30:06.323Z,98399.13
2023-01-12T07:32:35.120Z,98403.44
2023-01-12T07:35:03.789Z,98393.91
2023-01-12T07:37:32.421Z,98379.69
2023-01-12T07:40:02.323Z,98394.22
2023-01-12T07:42:30.108Z,98396.66
2023-01-12T07:44:58.490Z,98383.22
2023-01-12T07:47:28.086Z,98385.72
2023-01-12T07:49:56.484Z,98393.09
2023-01-12T07:52:25.769Z,98388.47
2023-01-12T07:54:54.098Z,98390.66
2023-01-12T07:57:24.386Z,98388.47
2023-01-12T07:59:53.415Z,98392.34
2023-01-12T08:02:22.627Z,98384.94
2023-01-12T08:04:51.435Z,98392.03
2023-01-12T08:07:20.109Z,98396.38
2023-01-12T08:09:48.363Z,98393.06
2023-01-12T08:12:16.963Z,98387.81
2023-01-12T08:14:46.626Z,98384.25
2023-01-12T08:17:18.882Z,98382.47
2023-01-12T08:19:50.921Z,98383.91
2023-01-12T08:22:24.762Z,98379.34
2023-01-12T08:24:55.910Z,98372.41
2023-01-12T08:27:26.936Z,98387.34
2023-01-12T08:30:00.052Z,98382.53
2023-01-12T08:32:29.928Z,98378.91
2023-01-12T08:35:01.844Z,98384.06
2023-01-12T08:37:31.518Z,98385.34
2023-01-12T08:39:59.838Z,98390.22
2023-01-12T08:42:30.837Z,98376.09
2023-01-12T08:45:01.233Z,98368.97
2023-01-12T08:47:30.769Z,98372.50
2023-01-12T08:50:00.590Z,98379.75
2023-01-12T08:52:31.902Z,98382.19
2023-01-12T08:55:00.302Z,98377.78
2023-01-12T08:57:29.012Z,98381.72
2023-01-12T08:59:57.745Z,98392.25
2023-01-12T09:02:28.160Z,98384.97
2023-01-12T09:04:56.771Z,98390.66
2023-01-12T09:07:25.492Z,98381.59
2023-01-12T09:09:53.812Z,98382.53
2023-01-12T09:12:24.372Z,98384.69
2023-01-12T09:14:54.200Z,98389.31
2023-01-12T09:17:24.190Z,98384.19
2023-01-12T09:19:53.811Z,98376.59
2023-01-12T09:22:22.488Z,98372.75
2023-01-12T09:24:50.772Z,98365.28
2023-01-12T09:27:19.396Z,98356.16
2023-01-12T09:29:47.759Z,98355.16
2023-01-12T09:32:18.482Z,98351.25
2023-01-12T09:34:49.884Z,98348.81
2023-01-12T09:37:20.043Z,98349.16
2023-01-12T09:39:48.269Z,98342.19
2023-01-12T09:42:37.329Z,98335.56
2023-01-12T09:45:34.333Z,98343.59
2023-01-12T09:48:04.147Z,98328.66
2023-01-12T09:50:35.815Z,98328.69
2023-01-12T09:53:08.800Z,98331.63
2023-01-12T09:55:43.374Z,98337.44
2023-01-12T09:58:22.707Z,98323.88
2023-01-12T10:00:52.094Z,98326.56
2023-01-12T10:03:27.347Z,98326.91
2023-01-12T10:05:58.234Z,98317.63
2023-01-12T10:08:29.630Z,98317.50
2023-01-12T10:11:12.547Z,98324.00
2023-01-12T10:13:55.458Z,98316.75
2023-01-12T10:16:28.819Z,98309.78
2023-01-12T10:19:00.801Z,98309.41
2023-01-12T10:21:30.605Z,98320.38
2023-01-12T10:24:00.759Z,98310.81
2023-01-12T10:26:36.772Z,98304.25
2023-01-12T10:29:05.501Z,98316.03
2023-01-12T10:31:34.074Z,98317.28
2023-01-12T10:34:05.159Z,98307.41
2023-01-12T10:36:34.450Z,98306.19
2023-01-12T10:39:05.885Z,98311.47
2023-01-12T10:41:35.143Z,98309.50
2023-01-12T10:44:17.435Z,98306.72
2023-01-12T10:46:46.005Z,98294.25
2023-01-12T10:49:19.846Z,98279.59
2023-01-12T10:51:53.912Z,98283.66
2023-01-12T10:54:25.738Z,98282.75
2023-01-12T10:56:59.886Z,98277.25
2023-01-12T10:59:31.702Z,98280.50
2023-01-12T11:02:16.932Z,98276.94
2023-01-12T11:04:47.736Z,98280.16
2023-01-12T11:07:18.973Z,98284.53
2023-01-12T11:09:50.065Z,98287.00
2023-01-12T11:12:25.793Z,98288.03
2023-01-12T11:15:00.654Z,98278.06
2023-01-12T11:17:38.019Z,98271.22
2023-01-12T11:20:14.980Z,98272.03
2023-01-12T11:22:44.648Z,98248.19
2023-01-12T11:25:17.507Z,98263.03
2023-01-12T11:27:48.569Z,98254.28
2023-01-12T11:30:18.692Z,98248.63
2023-01-12T11:32:51.183Z,98246.47
2023-01-12T11:35:29.087Z,98255.94
2023-01-12T11:38:00.783Z,98245.13
2023-01-12T11:40:34.237Z,98240.34
2023-01-12T11:43:24.664Z,98246.00
2023-01-12T11:45:56.206Z,98236.34
2023-01-12T11:48:25.235Z,98235.34
2023-01-12T11:50:55.123Z,98205.78
2023-01-12T11:53:25.429Z,98205.16
2023-01-12T11:56:06.323Z,98227.19
2023-01-12T11:58:39.727Z,98215.06
2023-01-12T12:01:13.449Z,98213.06
2023-01-12T12:03:55.642Z,98211.75
2023-01-12T12:06:51.386Z,98216.28
2023-01-12T12:09:28.991Z,98211.66
2023-01-12T12:12:01.001Z,98205.59
2023-01-12T12:14:54.617Z,98199.06
2023-01-12T12:17:29.379Z,98212.09
2023-01-12T12:20:05.600Z,98209.22
2023-01-12T12:22:46.596Z,98202.34
2023-01-12T12:25:26.825Z,98202.59
2023-01-12T12:28:14.066Z,98203.22
2023-01-12T12:31:17.003Z,98203.84
2023-01-12T12:33:54.367Z,98188.31
2023-01-12T12:36:28.008Z,98192.63
2023-01-12T12:39:30.867Z,98198.09
2023-01-12T12:42:21.827Z,98209.81
2023-01-12T12:45:17.877Z,98206.44
2023-01-12T12:48:02.983Z,98207.66
2023-01-12T12:50:34.265Z,98201.56
2023-01-12T12:53:21.026Z,98193.63
2023-01-12T12:55:51.815Z,98166.38
2023-01-12T12:58:44.194Z,98188.69
2023-01-12T13:01:43.576Z,98193.72
2023-01-12T13:04:15.051Z,98195.34
2023-01-12T13:06:45.668Z,98179.44
2023-01-12T13:09:37.553Z,98192.03
2023-01-12T13:12:33.673Z,98194.03
2023-01-12T13:15:26.787Z,98196.28
2023-01-12T13:17:57.180Z,98187.00
2023-01-12T13:21:01.105Z,98193.03
2023-01-12T13:23:57.449Z,98181.78
2023-01-12T13:26:40.413Z,98174.72
2023-01-12T13:29:44.442Z,98175.63
2023-01-12T13:32:51.168Z,98181.31
2023-01-12T13:36:01.235Z,98174.38
2023-01-12T13:38:53.271Z,98178.00
2023-01-12T13:41:50.625Z,98180.06
2023-01-12T13:44:25.558Z,98176.78
2023-01-12T13:47:02.868Z,98172.19
2023-01-12T13:49:32.957Z,98166.53
2023-01-12T13:52:05.773Z,98159.81
2023-01-12T13:54:34.734Z,98168.34
2023-01-12T13:57:06.501Z,98162.28
2023-01-12T13:59:35.346Z,98162.59
2023-01-12T14:02:04.082Z,98162.28
2023-01-12T14:04:46.436Z,98153.50
2023-01-12T14:07:24.169Z,98152.38
2023-01-12T14:09:59.255Z,98157.94
2023-01-12T14:12:37.918Z,98134.72
2023-01-12T14:15:42.672Z,98149.28
2023-01-12T14:18:13.581Z,98142.00
2023-01-12T14:20:45.005Z,98146.59
2023-01-12T14:23:24.063Z,98138.97
2023-01-12T14:26:14.865Z,98147.94
2023-01-12T14:28:44.843Z,98152.84
2023-01-12T14:31:24.278Z,98159.09
2023-01-12T14:33:54.682Z,98158.84
2023-01-12T14:36:24.956Z,98153.81
2023-01-12T14:38:55.260Z,98151.66
2023-01-12T14:41:42.753Z,98142.47
2023-01-12T14:44:37.640Z,98145.50
2023-01-12T14:47:06.327Z,98145.81
2023-01-12T14:49:36.361Z,98144.84
2023-01-12T14:52:23.211Z,98156.41
2023-01-12T14:54:53.397Z,98159.38
2023-01-12T14:57:24.441Z,98161.09
2023-01-12T14:59:52.869Z,98168.94
2023-01-12T15:02:27.417Z,98155.97
2023-01-12T15:04:59.124Z,98156.50
2023-01-12T15:07:28.309Z,98164.34
2023-01-12T15:09:59.936Z,98163.75
2023-01-12T15:12:41.187Z,98157.19
2023-01-12T15:15:21.575Z,98155.22
2023-01-12T15:18:07.903Z,98162.44
2023-01-12T15:20:55.215Z,98156.13
2023-01-12T15:23:46.949Z,98151.97
2023-01-12T15:26:17.085Z,98150.75
2023-01-12T15:28:47.418Z,98143.69
2023-01-12T15:31:19.392Z,98157.53
2023-01-12T15:33:47.830Z,98151.66
2023-01-12T15:36:16.524Z,98157.25
2023-01-12T15:38:44.724Z,98147.59
2023-01-12T15:41:18.034Z,98154.19
2023-01-12T15:43:46.373Z,98147.63
2023-01-12T15:46:20.592Z,98145.50
2023-01-12T15:48:48.937Z,98150.34
2023-01-12T15:51:17.605Z,98154.38
2023-01-12T15:53:45.824Z,98144.44
2023-01-12T15:56:16.517Z,98145.28
2023-01-12T15:58:46.167Z,98145.97
2023-01-12T16:01:17.922Z,98151.47
2023-01-12T16:04:15.092Z,98149.91
2023-01-12T16:06:37.595Z,98150.03
2023-01-12T16:09:05.939Z,98145.66
2023-01-12T16:11:34.787Z,98146.75
2023-01-12T16:14:04.783Z,98145.22
2023-01-12T16:16:33.438Z,98145.53
2023-01-12T16:19:06.555Z,98141.94
2023-01-12T16:21:36.249Z,98139.28
2023-01-12T16:24:04.657Z,98146.28
2023-01-12T16:26:33.166Z,98138.97
2023-01-12T16:29:01.542Z,98138.97
2023-01-12T16:31:31.517Z,98142.06
2023-01-12T16:33:59.886Z,98127.13
2023-01-12T16:36:28.445Z,98141.38
2023-01-12T16:38:58.505Z,98138.72
2023-01-12T16:41:27.023Z,98140.06
2023-01-12T16:43:55.880Z,98133.47
2023-01-12T16:46:24.370Z,98129.06
2023-01-12T16:48:55.455Z,98131.81
2023-01-12T16:51:25.013Z,98122.91
2023-01-12T16:53:55.276Z,98119.00
2023-01-12T16:56:23.939Z,98110.00
2023-01-12T16:58:52.179Z,98116.56
2023-01-12T17:01:23.698Z,98111.50
2023-01-12T17:03:57.717Z,98106.41
2023-01-12T17:06:28.099Z,98097.06
2023-01-12T17:08:57.051Z,98106.53
2023-01-12T17:11:27.756Z,98102.13
2023-01-12T17:13:58.340Z,98100.19
2023-01-12T17:16:29.529Z,98097.97
2023-01-12T17:18:59.148Z,98102.56
2023-01-12T17:21:27.852Z,98100.84
2023-01-12T17:23:56.336Z,98105.19
2023-01-12T17:26:25.150Z,98102.38
2023-01-12T17:28:56.711Z,98102.06
2023-01-12T17:31:25.632Z,98097.47
2023-01-12T17:33:54.631Z,98107.03
2023-01-12T17:36:24.659Z,98099.00
2023-01-12T17:38:52.940Z,98096.38
2023-01-12T17:41:39.346Z,98091.50
2023-01-12T17:44:08.237Z,98086.56
2023-01-12T17:46:37.248Z,98079.16
2023-01-12T17:49:06.674Z,98090.13
2023-01-12T17:51:37.262Z,98095.28
2023-01-12T17:54:06.541Z,98094.22
2023-01-12T17:56:35.725Z,98092.41
2023-01-12T17:59:04.999Z,98073.50
2023-01-12T18:01:35.581Z,98085.75
2023-01-12T18:04:04.849Z,98076.28
2023-01-12T18:06:33.926Z,98072.00
2023-01-12T18:09:03.744Z,98067.22
2023-01-12T18:11:32.418Z,98071.59
2023-01-12T18:14:01.809Z,98077.75
2023-01-12T18:16:30.594Z,98075.88
2023-01-12T18:18:59.184Z,98074.16
2023-01-12T18:21:28.647Z,98068.84
2023-01-12T18:23:57.702Z,98070.56
2023-01-12T18:26:29.568Z,98065.53
2023-01-12T18:28:59.239Z,98066.72
2023-01-12T18:31:31.582Z,98063.38
2023-01-12T18:34:03.800Z,98063.34
2023-01-12T18:36:33.189Z,98067.72
2023-01-12T18:39:01.746Z,98054.94
2023-01-12T18:41:49.117Z,98057.00
2023-01-12T18:44:17.547Z,98055.47
2023-01-12T18:47:03.598Z,98059.91
2023-01-12T18:49:33.481Z,98056.50
2023-01-12T18:52:20.034Z,98054.44
2023-01-12T18:54:48.671Z,98053.63
2023-01-12T18:57:20.056Z,98050.19
2023-01-12T18:59:49.494Z,98053.38
2023-01-12T19:02:20.732Z,98056.25
2023-01-12T19:05:13.613Z,98048.50
2023-01-12T19:08:02.130Z,98054.53
2023-01-12T19:10:31.553Z,98054.44
2023-01-12T19:13:19.315Z,98055.00
2023-01-12T19:16:05.265Z,98050.56
2023-01-12T19:18:35.784Z,98057.75
2023-01-12T19:21:22.690Z,98062.84
2023-01-12T19:24:17.485Z,98054.59
2023-01-12T19:27:03.348Z,98059.03
2023-01-12T19:29:34.390Z,98064.03
2023-01-12T19:32:03.029Z,98060.94
2023-01-12T19:34:31.490Z,98062.84
2023-01-12T19:37:00.717Z,98058.75
2023-01-12T19:39:46.535Z,98053.03
2023-01-12T19:42:32.327Z,98049.47
2023-01-12T19:45:02.351Z,98046.34
2023-01-12T19:47:30.711Z,98050.81
2023-01-12T19:49:59.299Z,98051.09
2023-01-12T19:52:27.938Z,98044.88
2023-01-12T19:54:56.629Z,98044.56
2023-01-12T19:57:24.848Z,98040.53
2023-01-12T19:59:53.600Z,98052.72
2023-01-12T20:02:23.452Z,98049.66
2023-01-12T20:04:52.254Z,98047.28
2023-01-12T20:07:20.573Z,98051.38
2023-01-12T20:09:49.161Z,98047.03
2023-01-12T20:12:17.764Z,98043.72
2023-01-12T20:14:46.452Z,98043.75
2023-01-12T20:17:15.351Z,98049.75
2023-01-12T20:19:45.669Z,98052.59
2023-01-12T20:22:14.216Z,98052.69
2023-01-12T20:24:42.823Z,98050.84
2023-01-12T20:27:11.176Z,98055.38
2023-01-12T20:29:39.851Z,98054.16
2023-01-12T20:32:08.611Z,98053.03
2023-01-12T20:34:37.414Z,98047.78
2023-01-12T20:37:07.165Z,98041.88
2023-01-12T20:39:35.853Z,98034.13
2023-01-12T20:42:05.318Z,98019.28
2023-01-12T20:44:34.053Z,98024.50
2023-01-12T20:47:02.491Z,98033.94
2023-01-12T20:49:31.256Z,98025.00
2023-01-12T20:52:00.076Z,98032.19
2023-01-12T20:54:30.030Z,98040.19
2023-01-12T20:56:59.165Z,98029.03
2023-01-12T20:59:27.772Z,98039.66
2023-01-12T21:01:56.231Z,98019.09
2023-01-12T21:04:24.825Z,98033.28
2023-01-12T21:06:53.240Z,98029.13
2023-01-12T21:09:21.714Z,98027.16
2023-01-12T21:11:51.511Z,98031.31
2023-01-12T21:14:20.528Z,98027.63
2023-01-12T21:16:48.909Z,98038.28
2023-01-12T21:19:18.247Z,98031.94
2023-01-12T21:21:46.612Z,98037.69
2023-01-12T21:24:15.292Z,98036.69
2023-01-12T21:26:43.633Z,98034.63
2023-01-12T21:29:13.667Z,98028.53
2023-01-12T21:31:42.193Z,98030.75
2023-01-12T21:34:10.748Z,98020.38
2023-01-12T21:36:39.123Z,98028.22
2023-01-12T21:39:07.798Z,98037.59
2023-01-12T21:41:56.855Z,98031.56
2023-01-12T21:44:27.831Z,98032.41
2023-01-12T21:46:56.135Z,98028.69
2023-01-12T21:49:24.914Z,98018.00
2023-01-12T21:51:53.146Z,98021.50
2023-01-12T21:54:21.797Z,98020.13
2023-01-12T21:56:50.004Z,98015.81
2023-01-12T21:59:19.482Z,98016.34
2023-01-12T22:01:49.195Z,98017.47
2023-01-12T22:04:17.801Z,98016.91
2023-01-12T22:06:46.010Z,98011.28
2023-01-12T22:09:14.515Z,98016.44
2023-01-12T22:11:42.977Z,98010.63
2023-01-12T22:14:11.797Z,98005.66
2023-01-12T22:16:40.134Z,98010.38
2023-01-12T22:19:10.107Z,98018.44
2023-01-12T22:21:38.384Z,98027.22
2023-01-12T22:24:07.866Z,98019.00
2023-01-12T22:26:36.264Z,98012.50
2023-01-12T22:29:04.800Z,98015.50
2023-01-12T22:31:33.693Z,98006.19
2023-01-12T22:34:05.526Z,98010.50
2023-01-12T22:36:37.193Z,98003.22
2023-01-12T22:39:05.750Z,97999.50
2023-01-12T22:41:34.112Z,98001.94
2023-01-12T22:44:02.779Z,97998.97
2023-01-12T22:46:31.052Z,98005.19
2023-01-12T22:49:00.544Z,98001.22
2023-01-12T22:51:29.532Z,97998.63
2023-01-12T22:53:59.792Z,98008.63
2023-01-12T22:56:27.995Z,97994.47
2023-01-12T22:58:57.777Z,98001.06
2023-01-12T23:01:27.049Z,97991.81
2023-01-12T23:03:56.010Z,97999.75
2023-01-12T23:06:25.953Z,98000.66
2023-01-12T23:08:56.064Z,97997.16
2023-01-12T23:11:27.710Z,98000.06
2023-01-12T23:13:56.761Z,97998.03
2023-01-12T23:16:25.808Z,97996.28
2023-01-12T23:18:55.512Z,97994.28
2023-01-12T23:21:25.436Z,97998.66
2023-01-12T23:23:55.369Z,98001.47
2023-01-12T23:26:26.457Z,97998.31
2023-01-12T23:28:56.136Z,97996.50
2023-01-12T23:31:25.871Z,97984.69
2023-01-12T23:33:54.716Z,97984.81
2023-01-12T23:36:24.691Z,97982.44
2023-01-12T23:38:54.215Z,97984.75
2023-01-12T23:41:24.731Z,97980.25
2023-01-12T23:43:56.387Z,97979.88
2023-01-12T23:46:24.758Z,97978.00
2023-01-12T23:48:55.384Z,97977.94
2023-01-12T23:51:25.670Z,97979.06
2023-01-12T23:53:54.692Z,97972.84
2023-01-12T23:56:23.729Z,97960.88
2023-01-12T23:58:52.833Z,97974.22
